Executive Airport


Codes: KORL/
Name: Executive Airport
City: Orlando
Country: United States
Elevation: 113 ft.
Wikipedia:

Photos at Executive Airport


   Photos courtesy of SpottingLog. You can add your own sightings and photos by signing up for a free trial today.



No photos found.

Weather at Executive Airport


Time (UTC)DescriptionTempratureWindCloud coverageVisibilityPressureHumidity
13-Jun-2024 03:00Moderate Rain26°C2 mph, SE83%10000m1012hPa89%
13-Jun-2024 06:00Scattered Clouds25°C7 mph, SW49%10000m1012hPa91%
13-Jun-2024 09:00Light Rain24°C7 mph, SW37%10000m1012hPa95%
13-Jun-2024 12:00Light Rain25°C7 mph, SW33%10000m1013hPa90%
13-Jun-2024 15:00Scattered Clouds31°C4 mph, W42%10000m1013hPa60%
13-Jun-2024 18:00Light Rain35°C7 mph, NW51%10000m1011hPa42%
13-Jun-2024 21:00Light Rain32°C9 mph, E65%10000m1011hPa51%
14-Jun-2024 00:00Light Rain28°C7 mph, SE61%10000m1013hPa74%
14-Jun-2024 03:00Light Rain23°C9 mph, SW84%10000m1014hPa83%
14-Jun-2024 06:00Scattered Clouds24°C4 mph, SW46%10000m1012hPa79%
14-Jun-2024 09:00Clear Sky24°C2 mph, S1%10000m1013hPa83%
14-Jun-2024 12:00Clear Sky25°C2 mph, S1%10000m1014hPa78%
14-Jun-2024 15:00Clear Sky32°C2 mph, N5%10000m1014hPa48%
14-Jun-2024 18:00Few Clouds36°C4 mph, NW21%10000m1012hPa33%
14-Jun-2024 21:00Light Rain32°C11 mph, E62%10000m1011hPa50%
15-Jun-2024 00:00Light Rain28°C9 mph, SE83%10000m1013hPa69%
15-Jun-2024 03:00Overcast Clouds27°C7 mph, S100%10000m1014hPa74%
15-Jun-2024 06:00Overcast Clouds27°C4 mph, SW99%10000m1013hPa75%
15-Jun-2024 09:00Overcast Clouds26°C4 mph, W100%10000m1013hPa77%
15-Jun-2024 12:00Overcast Clouds27°C2 mph, W100%10000m1013hPa73%
15-Jun-2024 15:00Overcast Clouds30°C4 mph, W100%10000m1015hPa59%
15-Jun-2024 18:00Overcast Clouds33°C7 mph, N100%10000m1014hPa44%
15-Jun-2024 21:00Overcast Clouds35°C9 mph, NE100%10000m1012hPa34%
16-Jun-2024 00:00Overcast Clouds30°C11 mph, E99%10000m1014hPa51%
16-Jun-2024 03:00Overcast Clouds27°C7 mph, SE99%10000m1016hPa71%
16-Jun-2024 06:00Overcast Clouds26°C2 mph, E99%10000m1015hPa75%
16-Jun-2024 09:00Overcast Clouds25°C4 mph, NE100%10000m1015hPa80%
16-Jun-2024 12:00Overcast Clouds26°C7 mph, NE87%10000m1016hPa79%
16-Jun-2024 15:00Broken Clouds32°C9 mph, NE66%10000m1016hPa52%
16-Jun-2024 18:00Light Rain35°C13 mph, NE75%10000m1015hPa38%
16-Jun-2024 21:00Few Clouds34°C16 mph, E16%10000m1015hPa40%
17-Jun-2024 00:00Few Clouds30°C11 mph, E16%10000m1016hPa59%
17-Jun-2024 03:00Few Clouds27°C9 mph, E14%10000m1017hPa76%
17-Jun-2024 06:00Broken Clouds26°C7 mph, E56%10000m1017hPa81%
17-Jun-2024 09:00Broken Clouds25°C7 mph, E80%10000m1016hPa85%
17-Jun-2024 12:00Overcast Clouds26°C9 mph, E88%10000m1017hPa78%
17-Jun-2024 15:00Overcast Clouds30°C11 mph, E100%10000m1017hPa58%
17-Jun-2024 18:00Overcast Clouds32°C11 mph, SE100%10000m1016hPa46%
17-Jun-2024 21:00Overcast Clouds32°C13 mph, E100%10000m1015hPa51%
18-Jun-2024 00:00Overcast Clouds29°C11 mph, E88%10000m1017hPa63%